sensor_id;sensor_type;location;lat;lon;timestamp;pressure;altitude;pressure_sealevel;temperature;humidity
71457;BME280;59263;48.160;11.752;2022-12-19T00:01:50;96970.44;;;-6.47;100.00
71457;BME280;59263;48.160;11.752;2022-12-19T00:04:16;96967.88;;;-6.42;100.00
71457;BME280;59263;48.160;11.752;2022-12-19T00:06:44;96957.81;;;-6.38;100.00
71457;BME280;59263;48.160;11.752;2022-12-19T00:09:10;96974.56;;;-6.38;100.00
71457;BME280;59263;48.160;11.752;2022-12-19T00:11:35;96983.09;;;-6.54;100.00
71457;BME280;59263;48.160;11.752;2022-12-19T00:14:02;96997.41;;;-6.63;100.00
71457;BME280;59263;48.160;11.752;2022-12-19T00:16:28;97011.69;;;-6.68;100.00
71457;BME280;59263;48.160;11.752;2022-12-19T00:18:56;96999.94;;;-6.66;100.00
71457;BME280;59263;48.160;11.752;2022-12-19T00:21:23;96976.44;;;-6.62;100.00
71457;BME280;59263;48.160;11.752;2022-12-19T00:23:50;96986.44;;;-6.52;100.00
71457;BME280;59263;48.160;11.752;2022-12-19T00:26:24;96979.72;;;-6.52;100.00
71457;BME280;59263;48.160;11.752;2022-12-19T00:28:52;96982.16;;;-6.43;100.00
71457;BME280;59263;48.160;11.752;2022-12-19T00:31:19;96967.09;;;-6.44;100.00
71457;BME280;59263;48.160;11.752;2022-12-19T00:33:45;96961.16;;;-6.37;100.00
71457;BME280;59263;48.160;11.752;2022-12-19T00:36:13;96946.88;;;-6.37;100.00
71457;BME280;59263;48.160;11.752;2022-12-19T00:38:42;96951.00;;;-6.31;100.00
71457;BME280;59263;48.160;11.752;2022-12-19T00:41:08;96940.06;;;-6.27;100.00
71457;BME280;59263;48.160;11.752;2022-12-19T00:43:34;96924.09;;;-6.23;100.00
71457;BME280;59263;48.160;11.752;2022-12-19T00:46:07;96911.50;;;-6.24;100.00
71457;BME280;59263;48.160;11.752;2022-12-19T00:48:33;96904.78;;;-6.24;100.00
71457;BME280;59263;48.160;11.752;2022-12-19T00:51:21;96896.31;;;-6.17;100.00
71457;BME280;59263;48.160;11.752;2022-12-19T00:53:46;96908.91;;;-6.14;100.00
71457;BME280;59263;48.160;11.752;2022-12-19T00:56:14;96919.03;;;-6.18;100.00
71457;BME280;59263;48.160;11.752;2022-12-19T00:58:41;96929.97;;;-6.24;100.00
71457;BME280;59263;48.160;11.752;2022-12-19T01:01:21;96954.31;;;-6.23;100.00
71457;BME280;59263;48.160;11.752;2022-12-19T01:03:47;96958.53;;;-6.28;100.00
71457;BME280;59263;48.160;11.752;2022-12-19T01:06:12;96973.63;;;-6.25;100.00
71457;BME280;59263;48.160;11.752;2022-12-19T01:08:38;96953.50;;;-6.25;100.00
71457;BME280;59263;48.160;11.752;2022-12-19T01:11:04;96943.41;;;-6.25;100.00
71457;BME280;59263;48.160;11.752;2022-12-19T01:13:32;96935.00;;;-6.22;100.00
71457;BME280;59263;48.160;11.752;2022-12-19T01:16:05;96929.13;;;-6.21;100.00
71457;BME280;59263;48.160;11.752;2022-12-19T01:18:32;96943.44;;;-6.26;100.00
71457;BME280;59263;48.160;11.752;2022-12-19T01:20:59;96948.41;;;-6.20;100.00
71457;BME280;59263;48.160;11.752;2022-12-19T01:23:25;96950.09;;;-6.21;100.00
71457;BME280;59263;48.160;11.752;2022-12-19T01:25:54;96946.75;;;-6.21;100.00
71457;BME280;59263;48.160;11.752;2022-12-19T01:28:20;96936.69;;;-6.23;100.00
71457;BME280;59263;48.160;11.752;2022-12-19T01:30:45;96921.56;;;-6.21;100.00
71457;BME280;59263;48.160;11.752;2022-12-19T01:33:12;96930.69;;;-6.13;100.00
71457;BME280;59263;48.160;11.752;2022-12-19T01:35:39;96908.91;;;-6.17;100.00
71457;BME280;59263;48.160;11.752;2022-12-19T01:38:05;96901.31;;;-6.11;100.00
71457;BME280;59263;48.160;11.752;2022-12-19T01:40:31;96904.66;;;-6.10;100.00
71457;BME280;59263;48.160;11.752;2022-12-19T01:42:57;96903.75;;;-6.04;100.00
71457;BME280;59263;48.160;11.752;2022-12-19T01:45:26;96901.38;;;-6.15;100.00
71457;BME280;59263;48.160;11.752;2022-12-19T01:50:39;96924.81;;;-6.10;100.00
71457;BME280;59263;48.160;11.752;2022-12-19T01:53:08;96924.03;;;-6.17;100.00
71457;BME280;59263;48.160;11.752;2022-12-19T01:55:35;96936.66;;;-6.18;100.00
71457;BME280;59263;48.160;11.752;2022-12-19T01:58:01;96930.88;;;-6.31;100.00
71457;BME280;59263;48.160;11.752;2022-12-19T02:00:27;96950.09;;;-6.21;100.00
71457;BME280;59263;48.160;11.752;2022-12-19T02:02:59;96953.50;;;-6.26;100.00
71457;BME280;59263;48.160;11.752;2022-12-19T02:05:27;96942.59;;;-6.27;100.00
71457;BME280;59263;48.160;11.752;2022-12-19T02:07:53;96950.97;;;-6.25;100.00
71457;BME280;59263;48.160;11.752;2022-12-19T02:10:18;96961.88;;;-6.23;100.00
71457;BME280;59263;48.160;11.752;2022-12-19T02:12:44;96954.38;;;-6.29;100.00
71457;BME280;59263;48.160;11.752;2022-12-19T02:15:12;96952.63;;;-6.24;100.00
71457;BME280;59263;48.160;11.752;2022-12-19T02:22:52;96958.56;;;-6.26;100.00
71457;BME280;59263;48.160;11.752;2022-12-19T02:25:42;96961.03;;;-6.22;100.00
71457;BME280;59263;48.160;11.752;2022-12-19T02:31:21;96956.00;;;-6.22;100.00
71457;BME280;59263;48.160;11.752;2022-12-19T02:34:01;96959.31;;;-6.20;100.00
71457;BME280;59263;48.160;11.752;2022-12-19T02:36:35;96954.38;;;-6.29;100.00
71457;BME280;59263;48.160;11.752;2022-12-19T02:39:09;96959.38;;;-6.26;100.00
71457;BME280;59263;48.160;11.752;2022-12-19T02:41:58;96976.16;;;-6.25;100.00
71457;BME280;59263;48.160;11.752;2022-12-19T02:44:34;96979.53;;;-6.26;100.00
71457;BME280;59263;48.160;11.752;2022-12-19T02:47:02;96971.13;;;-6.28;100.00
71457;BME280;59263;48.160;11.752;2022-12-19T02:49:31;96977.00;;;-6.27;100.00
71457;BME280;59263;48.160;11.752;2022-12-19T02:52:07;96978.72;;;-6.31;100.00
71457;BME280;59263;48.160;11.752;2022-12-19T02:54:32;96975.38;;;-6.33;100.00
71457;BME280;59263;48.160;11.752;2022-12-19T02:57:04;96975.41;;;-6.36;100.00
71457;BME280;59263;48.160;11.752;2022-12-19T03:03:10;96994.81;;;-6.53;100.00
71457;BME280;59263;48.160;11.752;2022-12-19T03:08:27;96987.28;;;-6.52;100.00
71457;BME280;59263;48.160;11.752;2022-12-19T03:11:00;97002.31;;;-6.41;100.00
71457;BME280;59263;48.160;11.752;2022-12-19T03:15:51;96998.06;;;-6.36;100.00
71457;BME280;59263;48.160;11.752;2022-12-19T03:18:18;97003.06;;;-6.30;100.00
71457;BME280;59263;48.160;11.752;2022-12-19T03:23:48;96990.41;;;-6.24;100.00
71457;BME280;59263;48.160;11.752;2022-12-19T03:26:20;97009.75;;;-6.30;100.00
71457;BME280;59263;48.160;11.752;2022-12-19T03:31:26;97009.75;;;-6.26;100.00
71457;BME280;59263;48.160;11.752;2022-12-19T03:33:59;97014.75;;;-6.23;100.00
71457;BME280;59263;48.160;11.752;2022-12-19T03:36:30;97022.22;;;-6.14;100.00
71457;BME280;59263;48.160;11.752;2022-12-19T03:38:59;97013.78;;;-6.10;100.00
71457;BME280;59263;48.160;11.752;2022-12-19T03:41:26;97019.69;;;-6.12;100.00
71457;BME280;59263;48.160;11.752;2022-12-19T03:44:10;97009.59;;;-6.07;100.00
71457;BME280;59263;48.160;11.752;2022-12-19T03:46:41;97006.94;;;-5.94;100.00
71457;BME280;59263;48.160;11.752;2022-12-19T03:49:10;97021.34;;;-6.06;100.00
71457;BME280;59263;48.160;11.752;2022-12-19T03:52:00;97023.84;;;-6.06;100.00
71457;BME280;59263;48.160;11.752;2022-12-19T03:54:33;97017.16;;;-6.09;100.00
71457;BME280;59263;48.160;11.752;2022-12-19T03:57:04;97038.13;;;-6.09;100.00
71457;BME280;59263;48.160;11.752;2022-12-19T03:59:54;97031.44;;;-6.13;100.00
71457;BME280;59263;48.160;11.752;2022-12-19T04:02:21;97017.97;;;-6.05;100.00
71457;BME280;59263;48.160;11.752;2022-12-19T04:04:52;97007.94;;;-6.12;100.00
71457;BME280;59263;48.160;11.752;2022-12-19T04:07:18;97010.38;;;-6.02;100.00
71457;BME280;59263;48.160;11.752;2022-12-19T04:09:45;97000.25;;;-5.96;100.00
71457;BME280;59263;48.160;11.752;2022-12-19T04:12:16;96989.31;;;-5.95;100.00
71457;BME280;59263;48.160;11.752;2022-12-19T04:14:43;96996.84;;;-5.92;100.00
71457;BME280;59263;48.160;11.752;2022-12-19T04:17:14;97015.28;;;-5.92;100.00
71457;BME280;59263;48.160;11.752;2022-12-19T04:19:50;96990.88;;;-5.87;100.00
71457;BME280;59263;48.160;11.752;2022-12-19T04:22:24;96991.72;;;-5.86;100.00
71457;BME280;59263;48.160;11.752;2022-12-19T04:24:52;96993.38;;;-5.84;100.00
71457;BME280;59263;48.160;11.752;2022-12-19T04:27:19;97005.91;;;-5.79;100.00
71457;BME280;59263;48.160;11.752;2022-12-19T04:29:46;97029.47;;;-5.80;100.00
71457;BME280;59263;48.160;11.752;2022-12-19T04:32:13;97048.06;;;-5.93;100.00
71457;BME280;59263;48.160;11.752;2022-12-19T04:34:39;97016.13;;;-5.91;100.00
71457;BME280;59263;48.160;11.752;2022-12-19T04:37:05;97049.78;;;-5.95;100.00
71457;BME280;59263;48.160;11.752;2022-12-19T04:39:30;97038.75;;;-5.87;100.00
71457;BME280;59263;48.160;11.752;2022-12-19T04:41:56;97038.78;;;-5.90;100.00
71457;BME280;59263;48.160;11.752;2022-12-19T04:44:21;97059.78;;;-5.91;100.00
71457;BME280;59263;48.160;11.752;2022-12-19T04:46:46;97002.75;;;-5.95;100.00
71457;BME280;59263;48.160;11.752;2022-12-19T04:49:12;97011.78;;;-5.78;100.00
71457;BME280;59263;48.160;11.752;2022-12-19T04:51:37;97023.53;;;-5.76;100.00
71457;BME280;59263;48.160;11.752;2022-12-19T04:54:02;97058.91;;;-5.82;100.00
71457;BME280;59263;48.160;11.752;2022-12-19T04:56:28;97034.53;;;-5.83;100.00
71457;BME280;59263;48.160;11.752;2022-12-19T04:58:58;97020.19;;;-5.76;100.00
71457;BME280;59263;48.160;11.752;2022-12-19T05:01:23;97010.88;;;-5.70;100.00
71457;BME280;59263;48.160;11.752;2022-12-19T05:03:49;97006.66;;;-5.66;100.00
71457;BME280;59263;48.160;11.752;2022-12-19T05:06:14;97009.13;;;-5.62;100.00
71457;BME280;59263;48.160;11.752;2022-12-19T05:08:41;96992.31;;;-5.60;100.00
71457;BME280;59263;48.160;11.752;2022-12-19T05:11:08;97020.88;;;-5.64;100.00
71457;BME280;59263;48.160;11.752;2022-12-19T05:13:34;97015.03;;;-5.63;100.00
71457;BME280;59263;48.160;11.752;2022-12-19T05:16:01;97001.53;;;-5.60;100.00
71457;BME280;59263;48.160;11.752;2022-12-19T05:18:27;96995.56;;;-5.53;100.00
71457;BME280;59263;48.160;11.752;2022-12-19T05:20:52;96984.63;;;-5.50;100.00
71457;BME280;59263;48.160;11.752;2022-12-19T05:23:19;97011.50;;;-5.48;100.00
71457;BME280;59263;48.160;11.752;2022-12-19T05:25:44;97008.13;;;-5.47;100.00
71457;BME280;59263;48.160;11.752;2022-12-19T05:28:09;97014.03;;;-5.49;100.00
71457;BME280;59263;48.160;11.752;2022-12-19T05:30:35;96999.72;;;-5.49;100.00
71457;BME280;59263;48.160;11.752;2022-12-19T05:33:00;97012.31;;;-5.44;100.00
71457;BME280;59263;48.160;11.752;2022-12-19T05:35:26;97013.13;;;-5.44;100.00
71457;BME280;59263;48.160;11.752;2022-12-19T05:37:51;97019.03;;;-5.46;100.00
71457;BME280;59263;48.160;11.752;2022-12-19T05:40:16;97006.34;;;-5.39;100.00
71457;BME280;59263;48.160;11.752;2022-12-19T05:42:42;97012.22;;;-5.38;100.00
71457;BME280;59263;48.160;11.752;2022-12-19T05:45:07;97023.09;;;-5.35;100.00
71457;BME280;59263;48.160;11.752;2022-12-19T05:47:33;97025.69;;;-5.39;100.00
71457;BME280;59263;48.160;11.752;2022-12-19T05:49:58;97031.56;;;-5.39;100.00
71457;BME280;59263;48.160;11.752;2022-12-19T05:52:24;97024.00;;;-5.37;100.00
71457;BME280;59263;48.160;11.752;2022-12-19T05:54:49;97029.81;;;-5.32;100.00
71457;BME280;59263;48.160;11.752;2022-12-19T05:57:15;97003.72;;;-5.31;100.00
71457;BME280;59263;48.160;11.752;2022-12-19T05:59:40;97001.16;;;-5.25;100.00
71457;BME280;59263;48.160;11.752;2022-12-19T06:02:06;96993.69;;;-5.32;100.00
71457;BME280;59263;48.160;11.752;2022-12-19T06:04:31;97017.06;;;-5.20;100.00
71457;BME280;59263;48.160;11.752;2022-12-19T06:06:57;97012.00;;;-5.20;100.00
71457;BME280;59263;48.160;11.752;2022-12-19T06:09:22;97013.72;;;-5.22;100.00
71457;BME280;59263;48.160;11.752;2022-12-19T06:11:48;97033.88;;;-5.19;100.00
71457;BME280;59263;48.160;11.752;2022-12-19T06:14:13;96993.63;;;-5.28;100.00
71457;BME280;59263;48.160;11.752;2022-12-19T06:16:38;97012.81;;;-5.15;100.00
71457;BME280;59263;48.160;11.752;2022-12-19T06:19:04;96990.84;;;-5.08;100.00
71457;BME280;59263;48.160;11.752;2022-12-19T06:21:29;97014.44;;;-5.11;100.00
71457;BME280;59263;48.160;11.752;2022-12-19T06:23:55;96976.84;;;-5.32;100.00
71457;BME280;59263;48.160;11.752;2022-12-19T06:26:21;97001.72;;;-5.04;100.00
71457;BME280;59263;48.160;11.752;2022-12-19T06:28:47;97009.28;;;-5.03;100.00
71457;BME280;59263;48.160;11.752;2022-12-19T06:31:14;97009.25;;;-5.00;100.00
71457;BME280;59263;48.160;11.752;2022-12-19T06:33:39;97011.72;;;-4.95;100.00
71457;BME280;59263;48.160;11.752;2022-12-19T06:36:12;97020.19;;;-4.99;100.00
71457;BME280;59263;48.160;11.752;2022-12-19T06:38:38;97011.72;;;-4.95;100.00
71457;BME280;59263;48.160;11.752;2022-12-19T06:41:03;96973.28;;;-5.16;100.00
71457;BME280;59263;48.160;11.752;2022-12-19T06:43:48;97018.34;;;-4.88;100.00
71457;BME280;59263;48.160;11.752;2022-12-19T06:46:13;96990.78;;;-5.02;100.00
71457;BME280;59263;48.160;11.752;2022-12-19T06:48:38;96963.97;;;-5.12;100.00
71457;BME280;59263;48.160;11.752;2022-12-19T06:51:04;97024.19;;;-4.84;100.00
71457;BME280;59263;48.160;11.752;2022-12-19T06:53:29;97011.53;;;-4.83;100.00
71457;BME280;59263;48.160;11.752;2022-12-19T06:55:56;97009.84;;;-4.81;100.00
71457;BME280;59263;48.160;11.752;2022-12-19T06:58:22;96955.72;;;-5.23;100.00
71457;BME280;59263;48.160;11.752;2022-12-19T07:00:48;97025.06;;;-4.87;100.00
71457;BME280;59263;48.160;11.752;2022-12-19T07:03:17;97005.75;;;-4.90;100.00
71457;BME280;59263;48.160;11.752;2022-12-19T07:05:43;96982.31;;;-4.98;100.00
71457;BME280;59263;48.160;11.752;2022-12-19T07:08:09;97012.38;;;-4.81;100.00
71457;BME280;59263;48.160;11.752;2022-12-19T07:10:35;96983.09;;;-4.94;100.00
71457;BME280;59263;48.160;11.752;2022-12-19T07:13:00;96967.28;;;-5.07;100.00
71457;BME280;59263;48.160;11.752;2022-12-19T07:15:26;96946.38;;;-5.17;100.00
71457;BME280;59263;48.160;11.752;2022-12-19T07:17:52;96995.53;;;-4.80;100.00
71457;BME280;59263;48.160;11.752;2022-12-19T07:20:19;96968.88;;;-5.00;100.00
71457;BME280;59263;48.160;11.752;2022-12-19T07:22:45;96962.16;;;-4.99;100.00
71457;BME280;59263;48.160;11.752;2022-12-19T07:25:11;96972.13;;;-4.92;100.00
71457;BME280;59263;48.160;11.752;2022-12-19T07:27:36;96979.56;;;-4.81;100.00
71457;BME280;59263;48.160;11.752;2022-12-19T07:30:04;96965.34;;;-4.88;100.00
71457;BME280;59263;48.160;11.752;2022-12-19T07:32:30;96967.09;;;-4.92;100.00
71457;BME280;59263;48.160;11.752;2022-12-19T07:34:55;96946.06;;;-4.92;100.00
71457;BME280;59263;48.160;11.752;2022-12-19T07:37:21;96976.84;;;-4.67;100.00
71457;BME280;59263;48.160;11.752;2022-12-19T07:39:49;96986.84;;;-4.59;100.00
71457;BME280;59263;48.160;11.752;2022-12-19T07:42:14;96980.09;;;-4.60;100.00
71457;BME280;59263;48.160;11.752;2022-12-19T07:44:40;96985.91;;;-4.52;100.00
71457;BME280;59263;48.160;11.752;2022-12-19T07:47:06;97015.97;;;-4.37;100.00
71457;BME280;59263;48.160;11.752;2022-12-19T07:49:34;96989.16;;;-4.47;100.00
71457;BME280;59263;48.160;11.752;2022-12-19T07:51:59;97030.72;;;-4.13;100.00
71457;BME280;59263;48.160;11.752;2022-12-19T07:54:25;97006.47;;;-4.21;100.00
71457;BME280;59263;48.160;11.752;2022-12-19T07:56:50;97013.94;;;-4.17;100.00
71457;BME280;59263;48.160;11.752;2022-12-19T07:59:16;97023.19;;;-4.14;100.00
71457;BME280;59263;48.160;11.752;2022-12-19T08:01:42;97008.81;;;-4.10;100.00
71457;BME280;59263;48.160;11.752;2022-12-19T08:04:08;96973.69;;;-4.26;100.00
71457;BME280;59263;48.160;11.752;2022-12-19T08:06:35;97000.28;;;-4.03;100.00
71457;BME280;59263;48.160;11.752;2022-12-19T08:09:00;96999.22;;;-3.92;100.00
71457;BME280;59263;48.160;11.752;2022-12-19T08:11:26;97025.84;;;-3.71;100.00
71457;BME280;59263;48.160;11.752;2022-12-19T08:13:54;96986.56;;;-3.90;100.00
71457;BME280;59263;48.160;11.752;2022-12-19T08:16:21;96984.66;;;-3.79;100.00
71457;BME280;59263;48.160;11.752;2022-12-19T08:18:46;96974.63;;;-3.82;100.00
71457;BME280;59263;48.160;11.752;2022-12-19T08:21:12;97007.75;;;-3.49;100.00
71457;BME280;59263;48.160;11.752;2022-12-19T08:23:39;96957.59;;;-3.72;100.00
71457;BME280;59263;48.160;11.752;2022-12-19T08:26:06;96991.53;;;-3.39;100.00
71457;BME280;59263;48.160;11.752;2022-12-19T08:28:33;96979.06;;;-3.48;100.00
71457;BME280;59263;48.160;11.752;2022-12-19T08:31:08;96997.09;;;-3.22;100.00
71457;BME280;59263;48.160;11.752;2022-12-19T08:33:35;96996.09;;;-3.13;100.00
71457;BME280;59263;48.160;11.752;2022-12-19T08:36:11;96998.28;;;-2.96;100.00
71457;BME280;59263;48.160;11.752;2022-12-19T08:38:37;96949.81;;;-3.20;100.00
71457;BME280;59263;48.160;11.752;2022-12-19T08:41:06;96967.75;;;-2.90;100.00
71457;BME280;59263;48.160;11.752;2022-12-19T08:43:31;96974.16;;;-2.74;100.00
71457;BME280;59263;48.160;11.752;2022-12-19T08:45:57;96918.88;;;-2.92;100.00
71457;BME280;59263;48.160;11.752;2022-12-19T08:48:23;96923.44;;;-2.71;100.00
71457;BME280;59263;48.160;11.752;2022-12-19T08:50:53;96961.31;;;-2.29;100.00
71457;BME280;59263;48.160;11.752;2022-12-19T08:53:20;96932.69;;;-2.34;100.00
71457;BME280;59263;48.160;11.752;2022-12-19T08:55:53;96959.88;;;-2.05;100.00
71457;BME280;59263;48.160;11.752;2022-12-19T08:58:20;96888.91;;;-2.39;100.00
71457;BME280;59263;48.160;11.752;2022-12-19T09:00:46;96930.94;;;-1.98;100.00
71457;BME280;59263;48.160;11.752;2022-12-19T09:03:11;96950.69;;;-1.76;100.00
71457;BME280;59263;48.160;11.752;2022-12-19T09:05:37;96950.41;;;-1.65;100.00
71457;BME280;59263;48.160;11.752;2022-12-19T09:08:03;96932.72;;;-1.68;100.00
71457;BME280;59263;48.160;11.752;2022-12-19T09:10:28;96890.91;;;-1.85;100.00
71457;BME280;59263;48.160;11.752;2022-12-19T09:12:55;96917.50;;;-1.68;100.00
71457;BME280;59263;48.160;11.752;2022-12-19T09:15:21;96965.59;;;-1.33;100.00
71457;BME280;59263;48.160;11.752;2022-12-19T09:17:46;96951.88;;;-1.26;100.00
71457;BME280;59263;48.160;11.752;2022-12-19T09:20:11;96887.50;;;-1.54;100.00
71457;BME280;59263;48.160;11.752;2022-12-19T09:22:37;96902.75;;;-1.25;100.00
71457;BME280;59263;48.160;11.752;2022-12-19T09:25:02;96899.06;;;-1.14;100.00
71457;BME280;59263;48.160;11.752;2022-12-19T09:27:27;96876.25;;;-1.16;100.00
71457;BME280;59263;48.160;11.752;2022-12-19T09:29:53;96894.19;;;-0.92;100.00
71457;BME280;59263;48.160;11.752;2022-12-19T09:32:18;96916.63;;;-0.79;100.00
71457;BME280;59263;48.160;11.752;2022-12-19T09:34:44;96860.09;;;-1.13;100.00
71457;BME280;59263;48.160;11.752;2022-12-19T09:37:10;96867.44;;;-1.04;100.00
71457;BME280;59263;48.160;11.752;2022-12-19T09:39:38;96925.78;;;-0.73;100.00
71457;BME280;59263;48.160;11.752;2022-12-19T09:42:24;96932.25;;;-0.63;100.00
71457;BME280;59263;48.160;11.752;2022-12-19T09:45:01;96928.97;;;-0.66;100.00
71457;BME280;59263;48.160;11.752;2022-12-19T09:47:30;96902.09;;;-0.75;100.00
71457;BME280;59263;48.160;11.752;2022-12-19T09:49:58;96903.72;;;-0.73;100.00
71457;BME280;59263;48.160;11.752;2022-12-19T09:52:38;96948.59;;;-0.43;100.00
71457;BME280;59263;48.160;11.752;2022-12-19T09:55:19;96962.13;;;-0.43;100.00
71457;BME280;59263;48.160;11.752;2022-12-19T10:00:33;96965.41;;;-0.39;100.00
71457;BME280;59263;48.160;11.752;2022-12-19T10:03:12;96923.44;;;-0.53;100.00
71457;BME280;59263;48.160;11.752;2022-12-19T10:05:49;96956.47;;;-0.26;100.00
71457;BME280;59263;48.160;11.752;2022-12-19T10:08:33;96916.41;;;-0.44;100.00
71457;BME280;59263;48.160;11.752;2022-12-19T10:13:53;96939.06;;;-0.12;100.00
71457;BME280;59263;48.160;11.752;2022-12-19T10:17:02;96926.25;;;-0.09;100.00
71457;BME280;59263;48.160;11.752;2022-12-19T10:22:58;96921.00;;;-0.04;100.00
71457;BME280;59263;48.160;11.752;2022-12-19T10:25:54;96912.25;;;-0.20;100.00
71457;BME280;59263;48.160;11.752;2022-12-19T10:33:45;96916.06;;;-0.07;100.00
71457;BME280;59263;48.160;11.752;2022-12-19T10:36:14;96900.88;;;-0.10;100.00
71457;BME280;59263;48.160;11.752;2022-12-19T10:38:49;96914.97;;;0.00;100.00
71457;BME280;59263;48.160;11.752;2022-12-19T10:41:24;96923.28;;;0.04;100.00
71457;BME280;59263;48.160;11.752;2022-12-19T10:46:47;96922.84;;;0.17;100.00
71457;BME280;59263;48.160;11.752;2022-12-19T10:49:18;96888.53;;;0.04;100.00
71457;BME280;59263;48.160;11.752;2022-12-19T10:54:25;96896.00;;;0.09;100.00
71457;BME280;59263;48.160;11.752;2022-12-19T10:57:28;96901.59;;;0.18;100.00
71457;BME280;59263;48.160;11.752;2022-12-19T11:00:13;96893.19;;;0.16;100.00
71457;BME280;59263;48.160;11.752;2022-12-19T11:02:49;96878.22;;;0.07;100.00
71457;BME280;59263;48.160;11.752;2022-12-19T11:05:30;96885.59;;;0.15;100.00
71457;BME280;59263;48.160;11.752;2022-12-19T11:10:41;96866.84;;;0.17;100.00
71457;BME280;59263;48.160;11.752;2022-12-19T11:13:41;96851.69;;;0.14;100.00
71457;BME280;59263;48.160;11.752;2022-12-19T11:16:07;96851.38;;;0.23;100.00
71457;BME280;59263;48.160;11.752;2022-12-19T11:18:39;96819.84;;;0.04;100.00
71457;BME280;59263;48.160;11.752;2022-12-19T11:29:02;96811.44;;;0.02;100.00
71457;BME280;59263;48.160;11.752;2022-12-19T11:31:30;96805.88;;;-0.09;100.00
71457;BME280;59263;48.160;11.752;2022-12-19T11:34:04;96804.84;;;-0.04;100.00
71457;BME280;59263;48.160;11.752;2022-12-19T11:36:40;96798.91;;;-0.04;100.00
71457;BME280;59263;48.160;11.752;2022-12-19T11:39:28;96793.88;;;0.18;100.00
71457;BME280;59263;48.160;11.752;2022-12-19T11:42:01;96788.59;;;0.24;100.00
71457;BME280;59263;48.160;11.752;2022-12-19T11:44:47;96784.31;;;0.24;100.00
71457;BME280;59263;48.160;11.752;2022-12-19T11:47:39;96782.56;;;0.27;100.00
71457;BME280;59263;48.160;11.752;2022-12-19T11:50:29;96786.97;;;0.21;100.00
71457;BME280;59263;48.160;11.752;2022-12-19T11:53:13;96778.78;;;0.13;100.00
71457;BME280;59263;48.160;11.752;2022-12-19T11:55:47;96788.41;;;0.05;100.00
71457;BME280;59263;48.160;11.752;2022-12-19T11:58:15;96755.22;;;-0.15;100.00
71457;BME280;59263;48.160;11.752;2022-12-19T12:00:53;96793.06;;;0.17;100.00
71457;BME280;59263;48.160;11.752;2022-12-19T12:03:56;96806.47;;;0.22;100.00
71457;BME280;59263;48.160;11.752;2022-12-19T12:06:31;96800.94;;;0.11;100.00
71457;BME280;59263;48.160;11.752;2022-12-19T12:09:03;96807.59;;;0.14;100.00
71457;BME280;59263;48.160;11.752;2022-12-19T12:11:49;96794.41;;;0.04;100.00
71457;BME280;59263;48.160;11.752;2022-12-19T12:20:20;96823.38;;;0.23;100.00
71457;BME280;59263;48.160;11.752;2022-12-19T12:25:49;96820.94;;;0.20;100.00
71457;BME280;59263;48.160;11.752;2022-12-19T12:37:31;96753.19;;;-0.06;100.00
71457;BME280;59263;48.160;11.752;2022-12-19T12:43:20;96770.34;;;0.13;100.00
71457;BME280;59263;48.160;11.752;2022-12-19T12:45:52;96779.34;;;0.21;100.00
71457;BME280;59263;48.160;11.752;2022-12-19T12:50:45;96783.44;;;0.26;100.00
71457;BME280;59263;48.160;11.752;2022-12-19T12:53:15;96752.81;;;0.05;100.00
71457;BME280;59263;48.160;11.752;2022-12-19T12:55:43;96791.97;;;0.24;100.00
71457;BME280;59263;48.160;11.752;2022-12-19T12:58:42;96791.78;;;0.29;100.00
71457;BME280;59263;48.160;11.752;2022-12-19T13:01:20;96784.22;;;0.28;100.00
71457;BME280;59263;48.160;11.752;2022-12-19T13:03:58;96797.59;;;0.33;100.00
71457;BME280;59263;48.160;11.752;2022-12-19T13:06:35;96784.81;;;0.34;100.00
71457;BME280;59263;48.160;11.752;2022-12-19T13:11:43;96767.16;;;0.30;100.00
71457;BME280;59263;48.160;11.752;2022-12-19T13:17:12;96769.88;;;0.25;100.00
71457;BME280;59263;48.160;11.752;2022-12-19T13:19:53;96772.13;;;0.33;100.00
71457;BME280;59263;48.160;11.752;2022-12-19T13:24:58;96784.81;;;0.34;100.00
71457;BME280;59263;48.160;11.752;2022-12-19T13:32:25;96785.53;;;0.38;100.00
71457;BME280;59263;48.160;11.752;2022-12-19T13:37:23;96760.53;;;0.26;100.00
71457;BME280;59263;48.160;11.752;2022-12-19T13:42:24;96747.97;;;0.21;100.00
71457;BME280;59263;48.160;11.752;2022-12-19T13:45:17;96770.66;;;0.27;100.00
71457;BME280;59263;48.160;11.752;2022-12-19T13:47:46;96760.78;;;0.19;100.00
71457;BME280;59263;48.160;11.752;2022-12-19T13:52:49;96741.34;;;0.17;100.00
71457;BME280;59263;48.160;11.752;2022-12-19T13:55:15;96739.72;;;0.14;100.00
71457;BME280;59263;48.160;11.752;2022-12-19T13:57:40;96741.16;;;0.21;100.00
71457;BME280;59263;48.160;11.752;2022-12-19T14:00:12;96708.94;;;-0.02;100.00
71457;BME280;59263;48.160;11.752;2022-12-19T14:02:53;96730.44;;;0.13;100.00
71457;BME280;59263;48.160;11.752;2022-12-19T14:05:23;96726.66;;;0.02;100.00
71457;BME280;59263;48.160;11.752;2022-12-19T14:07:49;96701.81;;;-0.15;100.00
71457;BME280;59263;48.160;11.752;2022-12-19T14:10:23;96718.69;;;-0.13;100.00
71457;BME280;59263;48.160;11.752;2022-12-19T14:12:52;96738.75;;;-0.05;100.00
71457;BME280;59263;48.160;11.752;2022-12-19T14:15:38;96742.13;;;-0.05;100.00
71457;BME280;59263;48.160;11.752;2022-12-19T14:20:45;96744.94;;;-0.12;100.00
71457;BME280;59263;48.160;11.752;2022-12-19T14:23:10;96760.94;;;-0.09;100.00
71457;BME280;59263;48.160;11.752;2022-12-19T14:25:41;96753.78;;;-0.22;100.00
71457;BME280;59263;48.160;11.752;2022-12-19T14:28:11;96765.53;;;-0.18;100.00
71457;BME280;59263;48.160;11.752;2022-12-19T14:30:40;96767.06;;;-0.14;100.00
71457;BME280;59263;48.160;11.752;2022-12-19T14:33:15;96779.00;;;-0.16;100.00
71457;BME280;59263;48.160;11.752;2022-12-19T14:35:50;96775.81;;;-0.21;100.00
71457;BME280;59263;48.160;11.752;2022-12-19T14:38:21;96770.91;;;-0.28;100.00